Andover, NJ (07821)

12:04 AM EDT on July 30, 2016 (GMT -0400)
Wooded Backyard | | Change Station

Elev 1086 ft 41.00 °N, 74.67 °W | Updated 12 minutes ago

Mostly Cloudy
Mostly Cloudy
66.6 °F
Feels Like 66.6 °F
N
0.0
Wind Variable Wind from South

Today
High -- | Low -- °F
--% Chance of Precip.
Yesterday
High -- | Low -- °F
Precip. -- in
Pressure 29.95 in
Visibility 4.0 miles
Clouds Mostly Cloudy 200 ft
Dew Point 66 °F
Humidity 97%
Rainfall in
Snow Depth Not available.
5:53 AM 8:16 PM
Waning Crescent, 16% visible
METAR KFWN 300353Z AUTO 00000KT 4SM BR BKN002 21/21 A2996 RMK AO2 SLP141 T02060206
Pressure 29.95 in
Visibility 4.0 miles
Clouds Mostly Cloudy 200 ft
Dew Point 66 °F
Humidity 97%
Rainfall in
Snow Depth Not available.
5:53 AM 8:16 PM
Waning Crescent, 16% visible
METAR KFWN 300353Z AUTO 00000KT 4SM BR BKN002 21/21 A2996 RMK AO2 SLP141 T02060206

10-Day Weather Forecast

Almanac

Astronomy

Jul. 30, 2016 Rise Set
Actual Time
Civil Twilight
Nautical Twilight
Astronomical Twilight
Moon
Length of Visible Light
Length of Day
Tomorrow will be .
, % of the Moon is Illuminated

Today's Extremes

State Highs State Lows

Community

WunderPhotos

Upload Photos

1,928,500 photos uploaded!

WunderBlog® & News

Nearby

Air Quality

  Air Quality AQ Index Pollutant
Not available.

Snow Depth

Station Depth Elevation

Earthquake Activity

City Distance Mag. Time & Date
Minimum magnitude displayed is 2.5.

Coastal Water Temperatures

Place Temperature

Stations

Nearby Weather Stations

Station Location Temp. Windchill Dew Point Humidity Wind Precip. Elev Updated Type
                   

Watches & Warnings

There are currently no watches in effect.